Jacksonville, FL

8:14 PM EST on December 24, 2014 (GMT -0500)
San Mateo | Change Station
CLOSE
Current Station
Personal Weather Station
Location: Jacksonville, FL
Elevation: 36 ft
Nearby Weather Stations

Elev 36 ft 30.44 °N, 81.63 °W | Updated 11 seconds ago

Overcast
Overcast
68.4 °F
Feels Like 68.4 °F
N
0.0
Wind Variable Wind from WSW
Gusts 0.0 mph

Today
High -- | Low -- °F
--% Chance of Precip.
Yesterday
High -- | Low -- °F
Precip. -- in
7:21 AM 5:31 PM
Waxing Crescent, 12% visible
Pressure 29.83 in
Visibility 10.0 miles
Clouds Mostly Cloudy 1200 ft
Overcast 10000 ft
Dew Point 67 °F
Humidity 96%
Rainfall 0.50 in
Snow Depth Not available.
UV 0 out of 12
Pollen .50 out of 12
Air Quality Not available.
Flu Activity Not available.
METAR KJAX 250056Z 24008KT 10SM BKN012 OVC100 20/19 A2982 RMK AO2 SLP099 T02000189

More Conditions Fewer Conditions

Pressure 29.83 in
Visibility 10.0 miles
Clouds Mostly Cloudy 1200 ft
Overcast 10000 ft
Dew Point 67 °F
Humidity 96%
Rainfall 0.50 in
Snow Depth Not available.
UV 0 out of 12
Pollen .50 out of 12
Air Quality Not available.
Flu Activity Not available.
METAR KJAX 250056Z 24008KT 10SM BKN012 OVC100 20/19 A2982 RMK AO2 SLP099 T02000189

More Conditions Fewer Conditions

10-Day Weather Forecast

Almanac

Astronomy

Dec. 24, 2014 Rise Set
Actual Time
Civil Twilight
Nautical Twilight
Astronomical Twilight
Moon
Length of Visible Light
Length of Day
Tomorrow will be .
, % of the Moon is Illuminated

Today's Extremes

State Highs State Lows

Community

WunderPhotos

Upload Photos

1,780,203 photos uploaded!

WunderBlogs® & News

Nearby

Air Quality

  Air Quality AQ Index Pollutant
Not available.

Snow Depth

Station Depth Elevation

Earthquake Activity

City Distance Mag. Time & Date
Minimum magnitude displayed is 2.5.

Coastal Water Temperatures

Place Temperature

Nearby Weather Stations